ADDS METAR Data INFO
IDs: Format: Raw Decoded Include TAF

Data at: 1933 UTC 19 Jul 2018

METAR for:KAPF (Naples Muni, FL, US)
Text:KAPF 191853Z 25009G16KT 10SM FEW031 33/26 A2999 RMK AO2 SLP153 T03280256
Temperature: 32.8°C ( 91°F)
Dewpoint: 25.6°C ( 78°F) [RH = 66%]
Pressure (altimeter):29.99 inches Hg (1015.7 mb) [Sea level pressure: 1015.3 mb]
Winds:from the WSW (250 degrees) at 10 MPH (9 knots; 4.6 m/s) gusting to 18 MPH (16 knots; 8.2 m/s)
Visibility:10 or more sm (16+ km)
Ceiling:at least 12,000 feet AGL
Clouds: few clouds at 3100 feet AGL